Accueil
METAR-TAF:

METAR-TAF

Aéroports :

Rahim Yar Khan, Pakistan

latitude: 28-23-02N, longitude: 70-16-47E, altitude: 83 m

METAR: absent

Heure: 04:32 (23:32 UTC)

Prévision

Le bulletin a été fait il y a 7 heures et 32 minutes, à 16:00 UTC
Prévision valable du 26 à 18 UTC au 27 à 12 UTC
Vent 10 kt de nord-est
Visibilité: 4000 m
Nuages épars à une hauteur de 12000 ft
fumée
Probabilité 30% :
Temporairement
du 27 à 01 UTC au 27 à 04 UTC
Vent kt de nord
Visibilité: 1500 m
brume

TAF: OPRK 261600Z 2618/2712 05010KT 4000 FU SCT120 TN13/2701Z TX31/2710Z PROB30 TEMPO 2701/2704 00000KT 1500 BR NSC

Observations et prévisions météorologiques de plus de 4000 aéroports (messages METAR et TAF).

Les stations disponibles sont représentées par des disques jaunes et rouges sur la carte.

Passer la souris dessus pour voir le nom de la station.

Cliquer dessus pour voir les observations et prévisions météorologiques.

Pour changer de carte: cliquez sur les boutons verts avec une croix noire pour zoomer, sur le bouton vert avec un tiret pour effectuer un zoom arrière, ou sur les flèches vertes pour les cartes adjacentes.


METAR-TAF: